METAR Data
IDs: Format: Raw Decoded Include TAF

Data at: 1228 UTC 16 Jul 2019

K0E0 161215Z AUTO 00000KT 10SM CLR 17/14 A3022 RMK AO2 T01710142
K0E0 161155Z AUTO 00000KT 10SM CLR 17/14 A3021 RMK AO2 T01650139 10206 20156
K0E0 161135Z AUTO 34003KT 10SM CLR 16/14 A3021 RMK AO2 T01560135
K0E0 161115Z AUTO 00000KT 10SM SCT120 17/14 A3021 RMK AO2 T01720136
K0E0 161055Z AUTO 30004KT 10SM CLR 17/14 A3020 RMK AO2 T01670135
K0E0 161035Z AUTO 00000KT 10SM CLR 17/14 A3020 RMK AO2 T01670136
K0E0 161015Z AUTO 35004KT 10SM CLR 17/13 A3020 RMK AO2 T01730132
K0E0 160955Z AUTO 15005KT 10SM CLR 19/13 A3019 RMK AO2 T01860131
K0E0 160935Z AUTO 14005KT 10SM CLR 19/13 A3019 RMK AO2 T01910133
K0E0 160915Z AUTO 15004KT 10SM CLR 20/14 A3020 RMK AO2 T01950137
K0E0 160855Z AUTO 15004KT 10SM CLR 20/14 A3020 RMK AO2 T02020137
K0E0 160835Z AUTO 00000KT 10SM SCT120 20/15 A3021 RMK AO2 T02010147
K0E0 160815Z AUTO 00000KT 10SM BKN120 20/16 A3021 RMK AO2 T01950156
K0E0 160755Z AUTO 08004KT 10SM SCT120 20/15 A3021 RMK AO2 T01950151
K0E0 160735Z AUTO 03003KT 10SM SCT120 20/15 A3021 RMK AO2 T01950148
K0E0 160715Z AUTO 24003KT 10SM SCT120 20/14 A3020 RMK AO2 T02040142
K0E0 160655Z AUTO 20004KT 10SM BKN120 21/14 A3020 RMK AO2 LTG DSNT NE T02060137
K0E0 160635Z AUTO 16003KT 10SM SCT120 21/14 A3020 RMK AO2 T02050136
K0E0 160615Z AUTO 17004KT 10SM CLR 20/14 A3021 RMK AO2 T02030140
K0E0 160555Z AUTO 16005KT 10SM CLR 21/15 A3021 RMK AO2 T02050145 10327 20202 403460144
K0E0 160535Z AUTO 12004KT 10SM CLR 20/14 A3022 RMK AO2 T02040144
K0E0 160515Z AUTO 22005KT 10SM CLR 21/13 A3022 RMK AO2 T02130133
K0E0 160455Z AUTO 22005KT 10SM CLR 20/15 A3022 RMK AO2 T02020147
K0E0 160435Z AUTO 22005KT 10SM CLR 20/15 A3022 RMK AO2 T02040147
K0E0 160415Z AUTO 23003KT 10SM CLR 21/15 A3023 RMK AO2 T02050146
K0E0 160355Z AUTO 22006KT 10SM CLR 21/15 A3022 RMK AO2 T02110149
K0E0 160335Z AUTO 23007KT 10SM CLR 22/15 A3022 RMK AO2 T02180150
K0E0 160315Z AUTO 17008KT 10SM SCT110 23/14 A3021 RMK AO2 T02290142
K0E0 160255Z AUTO 19007KT 10SM BKN110 23/13 A3021 RMK AO2 T02330134
K0E0 160235Z AUTO 17007KT 10SM SCT050 SCT070 BKN120 24/14 A3020 RMK AO2 LTG DSNT NW T02350135
K0E0 160215Z AUTO 13006KT 10SM BKN100 26/09 A3020 RMK AO2 LTG DSNT SW T02560091
K0E0 160155Z AUTO 12009KT 10SM OVC110 27/09 A3019 RMK AO2 LTG DSNT W THRU E T02700087
K0E0 160135Z AUTO 18012G16KT 10SM BKN120 28/08 A3017 RMK AO2 LTG DSNT N AND E T02800084
K0E0 160115Z AUTO 20011KT 10SM CLR 29/09 A3016 RMK AO2 LTG DSNT N AND SE T02850085
K0E0 160055Z AUTO 18016G19KT 10SM SCT002 29/08 A3016 RMK AO2 LTG DSNT N AND W T02930077
K0E0 160035Z AUTO 11015G22KT 10SM CLR 30/07 A3015 RMK AO2 LTG DSNT SE AND W T03030069
K0E0 160015Z AUTO 00000KT 10SM VCTS CLR 32/06 A3014 RMK AO2 LTG DSNT E THRU S T03200064
K0E0 152355Z AUTO 04015G18KT 10SM VCTS SCT110 33/07 A3014 RMK AO2 LTG DSNT ALQS T03260073 10346 20308
K0E0 152335Z AUTO 36012G15KT 10SM BKN110 33/06 A3015 RMK AO2 LTG DSNT NW THRU NE T03270058
K0E0 152315Z AUTO 25009KT 10SM SCT110 33/06 A3013 RMK AO2 LTG DSNT N NE AND SW T03310063
K0E0 152255Z AUTO 22010KT 10SM SCT110 35/06 A3014 RMK AO2 T03450062
K0E0 152235Z AUTO 26007KT 10SM SCT110 33/07 A3014 RMK AO2 LTG DSNT SE T03300065
K0E0 152215Z AUTO 00000KT 10SM SCT110 34/05 A3015 RMK AO2 T03370047
K0E0 152155Z AUTO 24003KT 10SM CLR 34/04 A3016 RMK AO2 LTG DSNT SE AND SW T03410043
K0E0 152135Z AUTO 26003KT 10SM CLR 34/07 A3016 RMK AO2 LTG DSNT NE T03400067
K0E0 152115Z AUTO 23006KT 10SM CLR 34/08 A3017 RMK AO2 LTG DSNT W T03410075
K0E0 152055Z AUTO 22009KT 10SM CLR 34/06 A3018 RMK AO2 LTG DSNT NE T03400064
K0E0 152035Z AUTO 21008KT 10SM SCT100 31/08 A3019 RMK AO2 LTG DSNT NE T03120084
K0E0 152015Z AUTO 00000KT 10SM CLR 32/06 A3020 RMK AO2 T03180057
K0E0 151955Z AUTO 31009KT 10SM CLR 32/06 A3021 RMK AO2 LTG DSNT NE T03190062
K0E0 151935Z AUTO 36008G15KT 10SM CLR 33/07 A3021 RMK AO2 LTG DSNT NE T03310069
K0E0 151915Z AUTO 30006G14KT 10SM CLR 32/07 A3022 RMK AO2 T03230073
K0E0 151855Z AUTO 35005G16KT 10SM CLR 32/08 A3023 RMK AO2 T03230076
K0E0 151835Z AUTO 30011G20KT 260V330 10SM CLR 32/08 A3023 RMK AO2 T03160078
K0E0 151815Z AUTO 33004KT 10SM CLR 31/10 A3024 RMK AO2 T03110097
K0E0 151755Z AUTO 28008KT 10SM CLR 31/10 A3024 RMK AO2 T03120099 10312 20144
K0E0 151735Z AUTO 00000KT 10SM CLR 30/10 A3024 RMK AO2 T03000102
K0E0 151715Z AUTO 31004KT 10SM CLR 29/10 A3025 RMK AO2 T02920102
K0E0 151655Z AUTO 31003KT 10SM CLR 28/10 A3026 RMK AO2 T02830101
K0E0 151635Z AUTO 00000KT 10SM CLR 27/10 A3026 RMK AO2 T02710100
K0E0 151615Z AUTO 03003KT 10SM CLR 26/10 A3027 RMK AO2 T02610100
K0E0 151555Z AUTO 00000KT 10SM CLR 25/10 A3027 RMK AO2 T02510102
K0E0 151535Z AUTO 00000KT 10SM CLR 24/10 A3028 RMK AO2 T02430098
K0E0 151515Z AUTO 00000KT 10SM CLR 24/10 A3028 RMK AO2 T02350099
K0E0 151455Z AUTO 00000KT 10SM CLR 23/10 A3029 RMK AO2 T02320102
K0E0 151435Z AUTO 00000KT 10SM CLR 22/11 A3029 RMK AO2 T02210112
K0E0 151415Z AUTO 00000KT 10SM CLR 21/12 A3029 RMK AO2 T02100115
K0E0 151355Z AUTO 00000KT 10SM CLR 20/12 A3029 RMK AO2 T01970117
K0E0 151335Z AUTO 00000KT 10SM CLR 19/12 A3029 RMK AO2 T01920117
K0E0 151315Z AUTO 00000KT 10SM CLR 18/12 A3029 RMK AO2 T01840120
K0E0 151255Z AUTO 00000KT 10SM CLR 17/12 A3029 RMK AO2 T01690121
K0E0 151235Z AUTO 06004KT 10SM CLR 15/12 A3029 RMK AO2 T01460115
K0E0 151215Z AUTO 00000KT 10SM CLR 15/11 A3029 RMK AO2 T01510112
K0E0 151155Z AUTO 00000KT 10SM CLR 16/11 A3029 RMK AO2 T01610112 10220 20158
K0E0 151135Z AUTO 27004KT 10SM CLR 16/11 A3029 RMK AO2 T01590114
K0E0 151115Z AUTO 26007KT 10SM CLR 17/12 A3028 RMK AO2 T01730116
K0E0 151055Z AUTO 20009KT 10SM CLR 19/11 A3027 RMK AO2 T01900111
K0E0 151035Z AUTO 17008KT 10SM CLR 19/12 A3027 RMK AO2 T01900119
K0E0 151015Z AUTO 00000KT 10SM CLR 19/12 A3027 RMK AO2 T01910120
K0E0 150955Z AUTO 00000KT 10SM CLR 19/12 A3028 RMK AO2 T01930120
K0E0 150935Z AUTO 00000KT 10SM CLR 20/12 A3028 RMK AO2 T01960115
K0E0 150915Z AUTO 00000KT 10SM CLR 20/12 A3029 RMK AO2 T01970118
K0E0 150855Z AUTO 02005KT 10SM SCT100 21/12 A3030 RMK AO2 T02070120
K0E0 150835Z AUTO 06005KT 10SM BKN110 21/13 A3031 RMK AO2 LTG DSNT E T02100126
K0E0 150815Z AUTO 02005KT 10SM BKN110 21/13 A3031 RMK AO2 T02060127
K0E0 150755Z AUTO 34006KT 10SM OVC110 21/13 A3031 RMK AO2 T02050129
K0E0 150735Z AUTO 36006KT 10SM BKN110 20/13 A3031 RMK AO2 T02030131
K0E0 150715Z AUTO 01007KT 10SM SCT110 21/13 A3031 RMK AO2 T02070127
K0E0 150655Z AUTO 01007KT 10SM VCTS SCT110 21/13 A3031 RMK AO2 T02060128
K0E0 150635Z AUTO 01010KT 10SM BKN100 21/13 A3031 RMK AO2 T02070126
K0E0 150615Z AUTO 36012G17KT 10SM BKN100 22/12 A3031 RMK AO2 LTG DSNT NE AND E T02150118
K0E0 150555Z AUTO 35007KT 10SM BKN100 22/12 A3031 RMK AO2 LTG DSNT NE T02220119 10310 20206 403380130
K0E0 150535Z AUTO 33007KT 10SM BKN110 22/11 A3031 RMK AO2 LTG DSNT NE T02240112
K0E0 150515Z AUTO 30006KT 10SM BKN100 22/10 A3030 RMK AO2 LTG DSNT NE T02230095
K0E0 150455Z AUTO 05005KT 10SM SCT100 22/09 A3027 RMK AO2 LTG DSNT NE T02150091
K0E0 150435Z AUTO 36003KT 10SM BKN110 21/09 A3027 RMK AO2 T02100089
K0E0 150415Z AUTO 05003KT 10SM CLR 23/08 A3025 RMK AO2 LTG DSNT NE T02290081
K0E0 150355Z AUTO 17003KT 10SM CLR 24/08 A3025 RMK AO2 LTG DSNT N AND NW T02370075
K0E0 150335Z AUTO 17008KT 10SM CLR 24/08 A3025 RMK AO2 LTG DSNT N T02370076
K0E0 150315Z AUTO 14004KT 10SM CLR 24/08 A3024 RMK AO2 T02400076
K0E0 150255Z AUTO 23007KT 10SM CLR 25/08 A3023 RMK AO2 LTG DSNT N T02530077
K0E0 150235Z AUTO 23005KT 10SM SCT120 26/09 A3023 RMK AO2 LTG DSNT ALQS T02570085
K0E0 150215Z AUTO 15007KT 1SM HZ BKN120 28/11 A3023 RMK AO2 T02750105
K0E0 150155Z AUTO 10012G15KT 10SM CLR 28/11 A3022 RMK AO2 LTG DSNT SW T02780105
K0E0 150135Z AUTO 10007KT 10SM CLR 28/10 A3022 RMK AO2 LTG DSNT N T02820095
K0E0 150115Z AUTO 08008KT 10SM CLR 29/09 A3022 RMK AO2 LTG DSNT SW AND NW T02860088
K0E0 150055Z AUTO 07008KT 10SM VCTS CLR 30/09 A3022 RMK AO2 LTG DSNT SW AND NW T02990093
K0E0 150035Z AUTO 00000KT 10SM CLR 31/08 A3022 RMK AO2 LTG DSNT NE T03050080